createdAt,value
2023-01-11T00:00:46.289Z,18.17
2023-01-11T00:03:17.745Z,18.00
2023-01-11T00:05:47.559Z,20.10
2023-01-11T00:08:19.629Z,18.20
2023-01-11T00:10:50.435Z,24.35
2023-01-11T00:13:20.637Z,24.02
2023-01-11T00:15:50.645Z,20.50
2023-01-11T00:18:25.745Z,24.40
2023-01-11T00:21:06.920Z,23.98
2023-01-11T00:23:41.262Z,28.10
2023-01-11T00:26:14.001Z,24.65
2023-01-11T00:28:43.536Z,19.23
2023-01-11T00:31:18.258Z,24.50
2023-01-11T00:33:47.527Z,21.13
2023-01-11T00:36:22.272Z,24.13
2023-01-11T00:38:54.270Z,19.73
2023-01-11T00:41:43.113Z,20.27
2023-01-11T00:44:36.656Z,25.98
2023-01-11T00:47:36.446Z,25.02
2023-01-11T00:50:06.422Z,25.08
2023-01-11T00:52:35.849Z,20.88
2023-01-11T00:55:05.773Z,25.50
2023-01-11T00:57:41.277Z,25.40
2023-01-11T01:00:16.426Z,28.98
2023-01-11T01:02:57.065Z,38.70
2023-01-11T01:05:26.549Z,120.07
2023-01-11T01:07:55.884Z,27.20
2023-01-11T01:10:26.092Z,26.52
2023-01-11T01:13:14.408Z,25.35
2023-01-11T01:15:43.719Z,30.80
2023-01-11T01:18:12.960Z,83.75
2023-01-11T01:20:43.537Z,84.53
2023-01-11T01:23:12.935Z,66.32
2023-01-11T01:25:43.099Z,27.80
2023-01-11T01:28:12.285Z,29.08
2023-01-11T01:30:41.981Z,24.60
2023-01-11T01:33:11.904Z,26.52
2023-01-11T01:35:41.458Z,26.98
2023-01-11T01:38:11.015Z,26.90
2023-01-11T01:40:47.122Z,36.00
2023-01-11T01:43:18.206Z,34.17
2023-01-11T01:45:50.417Z,25.25
2023-01-11T01:48:24.148Z,19.75
2023-01-11T01:50:57.806Z,22.33
2023-01-11T01:53:36.251Z,30.98
2023-01-11T01:56:15.693Z,25.08
2023-01-11T01:58:51.515Z,29.83
2023-01-11T02:01:47.682Z,26.88
2023-01-11T02:04:28.675Z,26.70
2023-01-11T02:07:14.816Z,24.17
2023-01-11T02:09:46.195Z,23.67
2023-01-11T02:12:20.927Z,26.05
2023-01-11T02:15:02.045Z,29.90
2023-01-11T02:17:31.604Z,27.55
2023-01-11T02:20:10.753Z,25.58
2023-01-11T02:22:41.003Z,26.92
2023-01-11T02:25:41.422Z,29.77
2023-01-11T02:31:34.900Z,23.00
2023-01-11T02:34:23.756Z,25.17
2023-01-11T02:37:13.000Z,23.80
2023-01-11T02:40:03.575Z,29.27
2023-01-11T02:42:57.335Z,45.00
2023-01-11T02:45:49.322Z,64.60
2023-01-11T02:48:51.365Z,67.90
2023-01-11T02:51:41.557Z,41.22
2023-01-11T02:54:13.169Z,56.45
2023-01-11T02:59:23.328Z,43.00
2023-01-11T03:01:56.125Z,45.35
2023-01-11T03:04:37.771Z,68.13
2023-01-11T03:07:07.248Z,117.93
2023-01-11T03:09:55.784Z,39.05
2023-01-11T03:13:04.482Z,53.17
2023-01-11T03:16:00.338Z,44.10
2023-01-11T03:18:50.829Z,37.90
2023-01-11T03:21:50.604Z,48.35
2023-01-11T03:24:36.501Z,89.85
2023-01-11T03:27:08.959Z,26.50
2023-01-11T03:29:38.522Z,60.97
2023-01-11T03:32:08.258Z,124.65
2023-01-11T03:34:58.279Z,41.53
2023-01-11T03:37:38.499Z,42.67
2023-01-11T03:40:17.028Z,47.65
2023-01-11T03:43:11.418Z,34.83
2023-01-11T03:46:03.432Z,28.65
2023-01-11T03:48:51.773Z,29.08
2023-01-11T03:51:31.296Z,27.73
2023-01-11T03:54:04.850Z,79.43
2023-01-11T03:56:44.017Z,51.08
2023-01-11T03:59:14.308Z,55.67
2023-01-11T04:04:21.724Z,32.60
2023-01-11T04:06:51.147Z,44.20
2023-01-11T04:09:31.549Z,41.70
2023-01-11T04:12:12.124Z,36.25
2023-01-11T04:14:42.764Z,27.92
2023-01-11T04:17:19.149Z,23.67
2023-01-11T04:19:49.862Z,25.70
2023-01-11T04:22:29.456Z,29.45
2023-01-11T04:24:58.881Z,20.33
2023-01-11T04:27:27.968Z,25.45
2023-01-11T04:29:58.007Z,21.77
2023-01-11T04:32:27.800Z,25.40
2023-01-11T04:34:57.097Z,23.45
2023-01-11T04:37:26.642Z,29.38
2023-01-11T04:39:56.142Z,26.05
2023-01-11T04:42:26.399Z,38.45
2023-01-11T04:44:56.313Z,38.05
2023-01-11T04:47:26.473Z,51.92
2023-01-11T04:50:07.027Z,34.88
2023-01-11T04:52:36.483Z,50.67
2023-01-11T04:55:06.760Z,45.42
2023-01-11T04:57:36.511Z,235.00
2023-01-11T05:00:11.270Z,46.45
2023-01-11T05:02:41.223Z,257.98
2023-01-11T05:05:12.565Z,193.93
2023-01-11T05:07:42.320Z,187.25
2023-01-11T05:10:12.321Z,195.63
2023-01-11T05:12:52.229Z,389.38
2023-01-11T05:15:21.648Z,281.50
2023-01-11T05:17:51.296Z,723.95
2023-01-11T05:20:25.563Z,151.40
2023-01-11T05:23:05.037Z,123.35
2023-01-11T05:25:35.840Z,237.48
2023-01-11T05:28:15.685Z,259.30
2023-01-11T05:30:56.405Z,175.83
2023-01-11T05:33:36.945Z,406.05
2023-01-11T05:36:22.115Z,313.25
2023-01-11T05:38:52.732Z,453.67
2023-01-11T05:41:32.977Z,299.10
2023-01-11T05:44:21.177Z,357.80
2023-01-11T05:46:50.886Z,173.88
2023-01-11T05:49:20.570Z,160.13
2023-01-11T05:51:51.931Z,64.32
2023-01-11T05:54:22.419Z,106.90
2023-01-11T05:56:51.945Z,112.82
2023-01-11T05:59:21.491Z,64.28
2023-01-11T06:01:58.211Z,102.47
2023-01-11T06:04:28.006Z,58.97
2023-01-11T06:06:57.526Z,85.40
2023-01-11T06:09:27.151Z,49.80
2023-01-11T06:11:56.155Z,43.65
2023-01-11T06:14:30.968Z,27.42
2023-01-11T06:17:03.149Z,26.15
2023-01-11T06:19:32.961Z,31.80
2023-01-11T06:22:04.352Z,52.17
2023-01-11T06:24:34.863Z,40.83
2023-01-11T06:27:04.346Z,39.28
2023-01-11T06:29:33.985Z,57.20
2023-01-11T06:32:09.201Z,69.90
2023-01-11T06:34:38.636Z,61.47
2023-01-11T06:37:12.621Z,69.40
2023-01-11T06:39:41.867Z,94.18
2023-01-11T06:42:11.986Z,89.05
2023-01-11T06:44:41.205Z,124.78
2023-01-11T06:47:20.511Z,113.57
2023-01-11T06:50:03.752Z,120.21
2023-01-11T06:52:43.868Z,77.35
2023-01-11T06:55:18.854Z,89.78
2023-01-11T06:58:00.279Z,109.30
2023-01-11T07:00:39.841Z,78.55
2023-01-11T07:03:15.076Z,129.20
2023-01-11T07:05:49.199Z,173.88
2023-01-11T07:08:19.513Z,282.98
2023-01-11T07:10:49.314Z,319.50
2023-01-11T07:13:28.281Z,130.20
2023-01-11T07:15:58.672Z,174.80
2023-01-11T07:18:32.113Z,149.93
2023-01-11T07:21:02.938Z,78.30
2023-01-11T07:23:32.645Z,39.55
2023-01-11T07:26:02.365Z,47.78
2023-01-11T07:28:31.729Z,43.03
2023-01-11T07:31:01.497Z,44.85
2023-01-11T07:33:31.655Z,46.35
2023-01-11T07:36:11.137Z,55.28
2023-01-11T07:38:41.544Z,54.00
2023-01-11T07:41:29.636Z,55.58
2023-01-11T07:44:04.556Z,144.52
2023-01-11T07:46:34.140Z,80.40
2023-01-11T07:49:14.023Z,87.55
2023-01-11T07:51:43.654Z,66.75
2023-01-11T07:54:13.244Z,73.30
2023-01-11T07:56:42.600Z,115.72
2023-01-11T07:59:18.471Z,91.03
2023-01-11T08:01:48.665Z,125.40
2023-01-11T08:04:18.170Z,145.20
2023-01-11T08:06:49.761Z,95.65
2023-01-11T08:09:29.509Z,64.47
2023-01-11T08:15:22.857Z,82.55
2023-01-11T08:18:06.096Z,54.65
2023-01-11T08:20:35.759Z,49.55
2023-01-11T08:23:06.945Z,34.42
2023-01-11T08:25:47.323Z,57.15
2023-01-11T08:28:17.988Z,43.05
2023-01-11T08:30:47.270Z,32.70
2023-01-11T08:33:19.436Z,40.53
2023-01-11T08:35:48.958Z,75.22
2023-01-11T08:38:18.551Z,146.38
2023-01-11T08:40:53.830Z,173.48
2023-01-11T08:43:24.195Z,217.95
2023-01-11T08:45:53.423Z,158.75
2023-01-11T08:48:22.634Z,131.25
2023-01-11T08:50:52.783Z,113.60
2023-01-11T08:53:22.544Z,74.82
2023-01-11T08:55:55.587Z,38.85
2023-01-11T08:58:26.043Z,63.35
2023-01-11T09:01:00.343Z,31.15
2023-01-11T09:03:31.423Z,21.48
2023-01-11T09:06:10.686Z,16.55
2023-01-11T09:08:46.255Z,18.90
2023-01-11T09:11:45.263Z,20.81
2023-01-11T09:14:15.133Z,18.35
2023-01-11T09:16:44.623Z,21.80
2023-01-11T09:19:25.600Z,18.40
2023-01-11T09:21:58.470Z,23.77
2023-01-11T09:24:33.291Z,17.17
2023-01-11T09:27:08.474Z,18.98
2023-01-11T09:29:47.758Z,19.48
2023-01-11T09:32:17.291Z,19.25
2023-01-11T09:34:50.373Z,13.75
2023-01-11T09:37:41.707Z,13.93
2023-01-11T09:40:21.703Z,22.00
2023-01-11T09:42:55.019Z,17.30
2023-01-11T09:45:34.938Z,23.33
2023-01-11T09:48:17.890Z,27.80
2023-01-11T09:50:49.108Z,30.58
2023-01-11T09:53:51.406Z,30.50
2023-01-11T09:56:43.020Z,30.85
2023-01-11T09:59:31.532Z,41.95
2023-01-11T10:05:50.476Z,64.68
2023-01-11T10:18:22.928Z,59.75
2023-01-11T10:27:36.852Z,42.00
2023-01-11T10:33:50.368Z,42.58
2023-01-11T10:40:35.561Z,34.60
2023-01-11T10:43:13.245Z,37.00
2023-01-11T10:45:52.732Z,36.15
2023-01-11T10:48:30.160Z,46.45
2023-01-11T10:51:31.584Z,42.88
2023-01-11T10:54:27.439Z,41.30
2023-01-11T10:57:24.236Z,52.45
2023-01-11T10:59:59.825Z,62.78
2023-01-11T11:02:56.406Z,59.13
2023-01-11T11:05:55.881Z,79.57
2023-01-11T11:12:09.041Z,74.45
2023-01-11T11:14:43.997Z,112.10
2023-01-11T11:17:49.990Z,98.07
2023-01-11T11:20:31.498Z,101.32
2023-01-11T11:23:01.875Z,84.90
2023-01-11T11:25:38.993Z,72.47
2023-01-11T11:28:24.127Z,62.97
2023-01-11T11:30:56.382Z,56.53
2023-01-11T11:33:39.765Z,48.41
2023-01-11T11:36:12.310Z,54.03
2023-01-11T11:39:01.179Z,48.67
2023-01-11T11:41:48.057Z,45.83
2023-01-11T11:44:29.079Z,53.23
2023-01-11T11:47:17.204Z,56.13
2023-01-11T11:49:47.908Z,48.67
2023-01-11T11:52:18.573Z,50.65
2023-01-11T11:54:57.163Z,50.38
2023-01-11T11:57:30.853Z,49.45
2023-01-11T12:00:07.150Z,45.22
2023-01-11T12:02:57.508Z,46.63
2023-01-11T12:05:27.273Z,51.03
2023-01-11T12:07:57.551Z,59.38
2023-01-11T12:10:33.692Z,63.35
2023-01-11T12:13:04.939Z,71.90
2023-01-11T12:15:35.456Z,80.15
2023-01-11T12:18:33.179Z,88.90
2023-01-11T12:21:23.920Z,82.57
2023-01-11T12:27:32.477Z,131.23
2023-01-11T12:30:11.259Z,115.93
2023-01-11T12:33:14.883Z,112.88
2023-01-11T12:35:56.879Z,136.65
2023-01-11T12:38:40.447Z,118.22
2023-01-11T12:41:44.108Z,119.35
2023-01-11T12:44:50.349Z,119.57
2023-01-11T12:47:48.874Z,109.70
2023-01-11T12:50:22.956Z,120.13
2023-01-11T12:53:19.333Z,156.90
2023-01-11T12:56:06.882Z,115.75
2023-01-11T12:59:18.601Z,160.30
2023-01-11T13:01:59.906Z,159.48
2023-01-11T13:04:54.769Z,186.37
2023-01-11T13:07:48.673Z,121.55
2023-01-11T13:10:32.828Z,139.20
2023-01-11T13:13:15.795Z,106.35
2023-01-11T13:16:17.569Z,94.15
2023-01-11T13:18:59.552Z,89.32
2023-01-11T13:21:54.469Z,93.00
2023-01-11T13:24:29.490Z,87.10
2023-01-11T13:27:06.443Z,73.50
2023-01-11T13:29:40.723Z,76.90
2023-01-11T13:32:18.995Z,90.47
2023-01-11T13:35:04.727Z,77.47
2023-01-11T13:37:40.991Z,73.40
2023-01-11T13:42:53.983Z,71.80
2023-01-11T13:45:30.937Z,72.73
2023-01-11T13:48:22.498Z,84.82
2023-01-11T13:50:58.231Z,74.63
2023-01-11T13:53:44.663Z,119.50
2023-01-11T13:58:55.079Z,112.75
2023-01-11T14:01:51.287Z,93.03
2023-01-11T14:04:40.608Z,96.00
2023-01-11T14:07:38.099Z,121.43
2023-01-11T14:10:31.310Z,135.02
2023-01-11T14:13:54.308Z,127.22
2023-01-11T14:16:41.036Z,123.38
2023-01-11T14:19:41.164Z,138.90
2023-01-11T14:22:39.219Z,155.35
2023-01-11T14:25:33.143Z,134.07
2023-01-11T14:28:34.617Z,160.50
2023-01-11T14:31:26.984Z,158.32
2023-01-11T14:34:08.724Z,192.80
2023-01-11T14:36:58.147Z,194.77
2023-01-11T14:39:40.999Z,181.38
2023-01-11T14:42:35.292Z,193.85
2023-01-11T14:49:19.503Z,178.93
2023-01-11T14:52:12.610Z,192.95
2023-01-11T14:54:48.329Z,180.20
2023-01-11T14:57:43.343Z,167.55
2023-01-11T15:00:21.661Z,166.00
2023-01-11T15:03:02.609Z,178.52
2023-01-11T15:06:15.471Z,151.20
2023-01-11T15:08:48.664Z,144.13
2023-01-11T15:11:39.129Z,150.88
2023-01-11T15:14:39.019Z,134.68
2023-01-11T15:17:38.392Z,140.95
2023-01-11T15:20:14.156Z,138.70
2023-01-11T15:22:59.942Z,137.27
2023-01-11T15:25:35.559Z,127.88
2023-01-11T15:28:34.440Z,142.98
2023-01-11T15:31:28.157Z,126.50
2023-01-11T15:34:04.785Z,125.20
2023-01-11T15:40:11.828Z,154.13
2023-01-11T15:43:10.410Z,163.32
2023-01-11T15:46:03.232Z,156.73
2023-01-11T15:49:09.573Z,159.95
2023-01-11T15:52:00.846Z,181.23
2023-01-11T15:55:05.010Z,175.52
2023-01-11T16:01:18.252Z,162.32
2023-01-11T16:04:02.993Z,155.43
2023-01-11T16:06:40.198Z,127.72
2023-01-11T16:09:33.039Z,155.32
2023-01-11T16:12:14.970Z,167.23
2023-01-11T16:15:06.149Z,161.65
2023-01-11T16:17:43.657Z,170.40
2023-01-11T16:20:20.732Z,174.37
2023-01-11T16:23:04.114Z,173.02
2023-01-11T16:25:42.221Z,240.95
2023-01-11T16:28:20.518Z,272.08
2023-01-11T16:31:06.941Z,228.23
2023-01-11T16:33:49.676Z,250.35
2023-01-11T16:36:25.001Z,244.45
2023-01-11T16:39:02.600Z,381.10
2023-01-11T16:42:01.711Z,372.55
2023-01-11T16:44:40.211Z,237.70
2023-01-11T16:47:20.329Z,215.02
2023-01-11T16:50:10.150Z,277.73
2023-01-11T16:56:27.147Z,249.15
2023-01-11T16:59:14.766Z,298.42
2023-01-11T17:01:59.327Z,248.38
2023-01-11T17:04:28.370Z,219.43
2023-01-11T17:07:21.464Z,160.63
2023-01-11T17:09:50.725Z,155.88
2023-01-11T17:12:24.386Z,140.57
2023-01-11T17:15:12.051Z,136.32
2023-01-11T17:17:41.055Z,124.75
2023-01-11T17:20:21.474Z,121.00
2023-01-11T17:22:54.180Z,127.95
2023-01-11T17:25:43.786Z,110.75
2023-01-11T17:28:20.395Z,109.28
2023-01-11T17:30:51.314Z,102.95
2023-01-11T17:33:29.155Z,92.45
2023-01-11T17:35:58.179Z,107.38
2023-01-11T17:38:28.285Z,91.20
2023-01-11T17:40:58.214Z,103.55
2023-01-11T17:43:47.329Z,103.13
2023-01-11T17:46:21.165Z,118.65
2023-01-11T17:48:54.537Z,103.72
2023-01-11T17:51:28.256Z,105.75
2023-01-11T17:54:02.753Z,110.93
2023-01-11T17:56:42.038Z,116.15
2023-01-11T17:59:21.928Z,98.25
2023-01-11T18:01:51.554Z,104.38
2023-01-11T18:04:31.771Z,92.80
2023-01-11T18:07:16.368Z,97.10
2023-01-11T18:09:50.132Z,94.00
2023-01-11T18:12:19.237Z,98.82
2023-01-11T18:14:58.402Z,93.22
2023-01-11T18:17:27.669Z,80.82
2023-01-11T18:20:02.151Z,81.95
2023-01-11T18:22:47.673Z,82.82
2023-01-11T18:25:23.331Z,74.63
2023-01-11T18:28:12.707Z,73.13
2023-01-11T18:30:42.556Z,77.90
2023-01-11T18:33:13.511Z,71.00
2023-01-11T18:35:44.383Z,65.93
2023-01-11T18:38:21.802Z,68.95
2023-01-11T18:41:25.566Z,63.58
2023-01-11T18:44:05.732Z,60.17
2023-01-11T18:46:36.596Z,71.35
2023-01-11T18:49:08.559Z,70.53
2023-01-11T18:51:42.161Z,64.00
2023-01-11T18:54:15.139Z,61.95
2023-01-11T18:56:44.880Z,62.42
2023-01-11T18:59:14.081Z,56.75
2023-01-11T19:01:56.564Z,55.55
2023-01-11T19:04:32.076Z,49.78
2023-01-11T19:07:00.911Z,48.92
2023-01-11T19:09:30.363Z,51.45
2023-01-11T19:11:59.275Z,56.28
2023-01-11T19:14:28.158Z,51.47
2023-01-11T19:16:57.841Z,51.60
2023-01-11T19:19:26.643Z,48.67
2023-01-11T19:21:55.407Z,44.78
2023-01-11T19:24:24.525Z,46.58
2023-01-11T19:26:58.428Z,44.20
2023-01-11T19:29:27.502Z,46.75
2023-01-11T19:32:01.591Z,45.72
2023-01-11T19:34:30.700Z,52.65
2023-01-11T19:36:59.890Z,49.88
2023-01-11T19:39:29.128Z,43.30
2023-01-11T19:42:08.248Z,44.30
2023-01-11T19:44:41.825Z,43.65
2023-01-11T19:47:17.132Z,43.70
2023-01-11T19:49:50.997Z,42.05
2023-01-11T19:52:30.042Z,40.58
2023-01-11T19:55:01.080Z,37.70
2023-01-11T19:57:31.940Z,37.85
2023-01-11T20:00:06.814Z,37.33
2023-01-11T20:02:40.662Z,39.47
2023-01-11T20:05:10.359Z,35.97
2023-01-11T20:07:44.151Z,42.25
2023-01-11T20:10:13.212Z,33.63
2023-01-11T20:12:42.526Z,40.47
2023-01-11T20:15:11.745Z,36.25
2023-01-11T20:17:40.487Z,39.38
2023-01-11T20:20:10.094Z,36.40
2023-01-11T20:22:45.634Z,34.40
2023-01-11T20:25:14.980Z,32.63
2023-01-11T20:27:44.475Z,36.50
2023-01-11T20:30:18.192Z,34.80
2023-01-11T20:32:47.016Z,34.65
2023-01-11T20:35:25.876Z,32.63
2023-01-11T20:38:04.972Z,27.77
2023-01-11T20:40:39.882Z,27.80
2023-01-11T20:43:11.053Z,25.15
2023-01-11T20:45:41.485Z,26.92
2023-01-11T20:48:11.266Z,23.20
2023-01-11T20:50:40.241Z,21.83
2023-01-11T20:53:14.190Z,23.60
2023-01-11T20:55:49.695Z,21.85
2023-01-11T20:58:23.813Z,24.63
2023-01-11T21:00:52.834Z,28.95
2023-01-11T21:03:31.721Z,22.95
2023-01-11T21:06:10.456Z,29.20
2023-01-11T21:08:54.229Z,26.27
2023-01-11T21:11:33.605Z,23.55
2023-01-11T21:14:13.128Z,21.17
2023-01-11T21:16:42.625Z,22.73
2023-01-11T21:19:12.248Z,22.67
2023-01-11T21:21:42.005Z,25.58
2023-01-11T21:24:12.720Z,25.23
2023-01-11T21:26:42.835Z,24.95
2023-01-11T21:29:17.917Z,26.75
2023-01-11T21:31:47.114Z,31.25
2023-01-11T21:34:16.581Z,30.50
2023-01-11T21:36:45.305Z,32.20
2023-01-11T21:39:14.794Z,26.98
2023-01-11T21:41:56.738Z,26.83
2023-01-11T21:44:34.036Z,27.25
2023-01-11T21:47:04.611Z,27.55
2023-01-11T21:49:34.143Z,29.48
2023-01-11T21:52:03.433Z,27.92
2023-01-11T21:54:32.242Z,24.80
2023-01-11T21:57:02.649Z,24.15
2023-01-11T21:59:34.049Z,27.80
2023-01-11T22:02:02.961Z,27.27
2023-01-11T22:04:31.772Z,19.58
2023-01-11T22:07:00.916Z,22.42
2023-01-11T22:09:29.944Z,19.38
2023-01-11T22:11:59.028Z,19.38
2023-01-11T22:14:27.885Z,23.73
2023-01-11T22:17:06.943Z,19.38
2023-01-11T22:19:36.346Z,23.23
2023-01-11T22:22:07.009Z,17.52
2023-01-11T22:24:36.368Z,20.95
2023-01-11T22:27:10.609Z,18.13
2023-01-11T22:29:39.801Z,18.08
2023-01-11T22:32:09.714Z,19.77
2023-01-11T22:34:39.766Z,21.25
2023-01-11T22:37:09.571Z,24.58
2023-01-11T22:39:44.697Z,23.27
2023-01-11T22:42:13.762Z,22.33
2023-01-11T22:44:42.399Z,29.00
2023-01-11T22:47:11.400Z,22.83
2023-01-11T22:49:40.363Z,24.13
2023-01-11T22:52:09.716Z,28.40
2023-01-11T22:54:38.984Z,24.98
2023-01-11T22:57:07.749Z,26.50
2023-01-11T22:59:36.364Z,26.95
2023-01-11T23:02:10.012Z,28.48
2023-01-11T23:04:49.523Z,26.55
2023-01-11T23:07:19.995Z,24.87
2023-01-11T23:09:49.585Z,30.40
2023-01-11T23:12:36.752Z,28.73
2023-01-11T23:15:06.079Z,27.55
2023-01-11T23:17:35.689Z,24.63
2023-01-11T23:20:04.755Z,25.70
2023-01-11T23:22:34.373Z,22.55
2023-01-11T23:25:03.959Z,23.42
2023-01-11T23:27:33.321Z,20.40
2023-01-11T23:30:01.940Z,19.77
2023-01-11T23:32:32.493Z,19.85
2023-01-11T23:35:01.232Z,15.98
2023-01-11T23:37:31.748Z,19.83
2023-01-11T23:40:00.889Z,19.05
2023-01-11T23:42:30.528Z,16.33
2023-01-11T23:44:59.871Z,17.42
2023-01-11T23:47:31.975Z,19.83
2023-01-11T23:50:06.360Z,21.10
2023-01-11T23:52:35.502Z,25.50
2023-01-11T23:55:05.613Z,32.22
2023-01-11T23:57:36.392Z,61.90
